Nearby METAR Reports

 

KSJC - San Jose, California, USA
Distance from station: NE 14km
Updated: 20/08/2018 07:53
Few Clouds
Few Clouds
 Wind from S
Wind: S 7 km/h
Temperature: 14°C
Dew Point: 12°C
Humidity: 88%
Barometer: 1011.9 hPa
Clouds: Few Clouds
Visibility: 11 km
Cloud details: Few Clouds 274 m
2018/08/20 10:53 KSJC 201053Z AUTO 17004KT 7SM FEW009 14/12 A2988 RMK AO2 SLP117 T01440122
KNUQ - Moffett Nas/Mtn, California, USA
Distance from station: N 14km
Updated: 20/08/2018 08:16
Mist, Overcast
Mist, Overcast
 Wind from calm
Wind: Calm
Temperature: 16°C
Dew Point: 14°C
Humidity: 88%
Barometer: 1012.2 hPa
Summary: Mist
Clouds: Overcast
Visibility: 10 km
Cloud details: Overcast 305 m
2018/08/20 11:16 KNUQ 201116Z 00000KT 6SM BR OVC010 16/14 A2989 RMK AO2 T01560139 $
 
KPAO - Palo Alto, California, USA
Distance from station: NNW 23km
Updated: 20/08/2018 00:47
NOT Current

 
Visibility: 3 km
2018/08/20 03:47 KPAO 200347Z 3405KT 10SM SCT180 16/15 A2990 RMK LAST
KRHV - San Jose/Reid, California, USA
Distance from station: ENE 19km
Updated: 20/08/2018 01:50
NOT Current
Clear
Clear
 Wind from W
Wind: W 7 km/h
Temperature: 18°C
Dew Point: 14°C
Humidity: 78%
Barometer: 1012.2 hPa
Clouds: Clear
Visibility: 16 km
2018/08/20 04:50 KRHV 200450Z 28004KT 10SM SKC 18/14 A2989 RMK LAST
 
KOAK - Oakland, California, USA
Distance from station: NNW 50km
Updated: 20/08/2018 07:53
Overcast
Overcast
 Wind from WSW
Wind: WSW 17 km/h
Temperature: 15°C
Dew Point: 13°C
Humidity: 88%
Barometer: 1011.9 hPa
Clouds: Overcast
Visibility: 11 km
Cloud details: Overcast 335 m
2018/08/20 10:53 KOAK 201053Z 25009KT 7SM OVC011 15/13 A2988 RMK AO2 SLP116 T01500128 $
KSQL - San Carlos Airpo, California, USA
Distance from station: NW 34km
Updated: 19/08/2018 12:48
NOT Current
Mist, Overcast
Mist, Overcast
 Wind from varies
Wind: varies 6 km/h
Temperature: 14°C
Dew Point: 13°C
Humidity: 94%
Barometer: 1015.9 hPa
Summary: Mist
Clouds: Overcast
Visibility: 8 km
Cloud details: Overcast 244 m
2018/08/19 15:48 KSQL 191548Z VRB03KT 5SM BR OVC008 14/13 A3000
 
KSFO - San Francisco, California, USA
Distance from station: NW 49km
Updated: 20/08/2018 07:56
Few Clouds
Few Clouds
 Wind from SW
Wind: SW 9 km/h
Temperature: 14°C
Dew Point: 11°C
Humidity: 82%
Barometer: 1011.9 hPa
Clouds: Few Clouds
Visibility: 16 km
Cloud details: Few Clouds 213 m
2018/08/20 10:56 KSFO 201056Z 22005KT 10SM FEW007 14/11 A2988 RMK AO2 SLP117 T01390106
KE16 - San Martin, California, USA
Distance from station: ESE 43km
Updated: 20/08/2018 08:10
Mist, Overcast
Mist, Overcast
 Wind from SE
Wind: SE 19 km/h
Temperature: 12°C
Dew Point: 11°C
Humidity: 94%
Barometer: 1013.2 hPa
Summary: Mist
Clouds: Overcast
Visibility: 6 km
Cloud details: Overcast 122 m
2018/08/20 11:10 KE16 201110Z AUTO 14010KT 4SM BR OVC004 12/11 A2992 RMK AO2
 
KWVI - Watsonville, California, USA
Distance from station: SSE 44km
Updated: 20/08/2018 07:53
Mist, Overcast
Mist, Overcast
 Wind from calm
Wind: Calm
Temperature: 13°C
Dew Point: 12°C
Humidity: 94%
Barometer: 1012.9 hPa
Summary: Mist
Clouds: Overcast
Visibility: 8 km
Cloud details: Overcast 183 m
2018/08/20 10:53 KWVI 201053Z AUTO 00000KT 5SM BR OVC006 13/12 A2991 RMK AO2 SLP129 T01280117 $
KHAF - Half Moon Bay, California, USA
Distance from station: WNW 50km
Updated: 20/08/2018 08:20
Mist, Overcast
Mist, Overcast
 Wind from S
Wind: S 6 km/h
Temperature: 14°C
Dew Point: 13°C
Humidity: 94%
Barometer: 1012.9 hPa
Summary: Mist
Clouds: Overcast
Visibility: 8 km
Cloud details: Mostly cloudy 183 m
Overcast 305 m
2018/08/20 11:20 KHAF 201120Z AUTO 18003KT 5SM BR BKN006 OVC010 14/13 A2991 RMK AO2
 
KHWD - Hayward, California, USA
Distance from station: N 44km
Updated: 20/08/2018 07:54
Overcast
Overcast
 Wind from W
Wind: W 9 km/h
Temperature: 16°C
Dew Point: 13°C
Humidity: 83%
Barometer: 1011.9 hPa
Clouds: Overcast
Visibility: 11 km
Cloud details: Overcast 305 m
2018/08/20 10:54 KHWD 201054Z AUTO 27005KT 7SM OVC010 16/13 A2988 RMK AO2 SLP126 T01610128
KLVK - Livermore, California, USA
Distance from station: NNE 51km
Updated: 20/08/2018 07:53
Mist, Smoke, Clear
Mist, Smoke, Clear
 Wind from NW
Wind: NW 7 km/h
Temperature: 13°C
Dew Point: 12°C
Humidity: 94%
Barometer: 1011.2 hPa
Summary: Mist, Smoke
Clouds: Clear
Visibility: 8 km
2018/08/20 10:53 KLVK 201053Z AUTO 32004KT 5SM BR FU CLR 13/12 A2986 RMK AO2 SLP107 T01330117